Informes METAR

 

LEZL - Sevilla, Spain
Distancia de la estación: ENE 8km
Actualización: 24/07/2014 19:30
Despejado
Despejado
 Viento de SSO
Viento: SSO 22 km/h
Temperatura: 31°C
Rocío: 13°C
Humedad: 33%
Barómetro: 1008 hPa
Resumen: Despejado
Visibilidad: mayor de 10 km
2014/07/24 17:30 LEZL 241730Z 21012KT 170V250 CAVOK 31/13 Q1008 NOSIG
LEMO - Morón, Spain
Distancia de la estación: SE 43km
Actualización: 24/07/2014 19:00
Despejado
Despejado
 Viento de O
Viento: O 20 km/h
Temperatura: 30°C
Índice de calor: 29°C
Rocío: 15°C
Humedad: 40%
Barómetro: 1010 hPa
Resumen: Despejado
Visibilidad: mayor de 10 km
2014/07/24 17:00 LEMO 241700Z 27011KT 230V320 CAVOK 30/15 Q1010 NOSIG
LEJR - Jeréz, Spain
Distancia de la estación: S 71km
Actualización: 24/07/2014 19:30
Despejado
Despejado
 Viento de SO
Viento: SO 19 km/h
Temperatura: 28°C
Índice de calor: 28°C
Rocío: 15°C
Humedad: 45%
Barómetro: 1010 hPa
Resumen: Despejado
Visibilidad: mayor de 10 km
2014/07/24 17:30 LEJR 241730Z 23010KT CAVOK 28/15 Q1010
 
LERT - Rota, Spain
Distancia de la estación: SSO 89km
Actualización: 24/07/2014 19:00
Despejado
Despejado
 Viento de OSO
Viento: OSO 24 km/h
Temperatura: 24°C
Rocío: 18°C
Humedad: 69%
Barómetro: 1011 hPa
Resumen: Despejado
Visibilidad: mayor de 10 km
2014/07/24 17:00 LERT 241700Z 25013KT CAVOK 24/18 Q1011 NOSIG
LEMG - Málaga, Spain
Distancia de la estación: ESE 157km
Actualización: 24/07/2014 19:30
Despejado
Despejado
 Viento de E
Viento: E 13 km/h
Temperatura: 26°C
Rocío: 17°C
Humedad: 58%
Barómetro: 1007 hPa
Resumen: Despejado
Visibilidad: mayor de 10 km
2014/07/24 17:30 LEMG 241730Z 10007KT CAVOK 26/17 Q1007 NOSIG
LEBA - Córdoba, Spain
Distancia de la estación: ENE 115km
Actualización: 24/07/2014 19:00
Despejado
Despejado
 Viento de O
Viento: O 17 km/h
Temperatura: 34°C
Rocío: 5°C
Humedad: 16%
Barómetro: 1008 hPa
Resumen: Despejado
Visibilidad: mayor de 10 km
2014/07/24 17:00 LEBA 241700Z 26009KT CAVOK 34/05 Q1008
 
LEGR - Granada, Spain
Distancia de la estación: E 198km
Actualización: 24/07/2014 19:30
Despejado
Despejado
 Viento de O
Viento: O 19 km/h
Temperatura: 34°C
Rocío: 11°C
Humedad: 24%
Barómetro: 1010 hPa
Resumen: Despejado
Visibilidad: mayor de 10 km
2014/07/24 17:30 LEGR 241730Z 27010KT 240V300 CAVOK 34/11 Q1010
LEAM - Almería, Spain
Distancia de la estación: E 326km
Actualización: 24/07/2014 19:30
Despejado
Despejado
 Viento de calm
Viento: Calma
Temperatura: 26°C
Rocío: 21°C
Humedad: 74%
Barómetro: 1008 hPa
Resumen: Despejado
Visibilidad: mayor de 10 km
2014/07/24 17:30 LEAM 241730Z 00000KT CAVOK 26/21 Q1008
LEMD - Madrid/Barajas, Spain
Distancia de la estación: NNE 402km
Actualización: 24/07/2014 19:30
Poco nuboso
Poco nuboso
 Viento de O
Viento: O 15 km/h
Temperatura: 35°C
Rocío: 7°C
Humedad: 18%
Barómetro: 1009 hPa
Nubes: Poco nuboso
Visibilidad: 10 km
Detalles de las nubes: Poco nuboso 2134 m
2014/07/24 17:30 LEMD 241730Z 27008KT 210V300 9999 FEW070 35/07 Q1009 NOSIG
 
LEVD - Valladolid, Spain
Distancia de la estación: N 492km
Actualización: 24/07/2014 19:30
Poco nuboso
Poco nuboso
 Viento de OSO
Viento: OSO 15 km/h
Temperatura: 31°C
Rocío: 6°C
Humedad: 21%
Barómetro: 1011 hPa
Nubes: Poco nuboso
Visibilidad: 10 km
Detalles de las nubes: Poco nuboso 1372 m
2014/07/24 17:30 LEVD 241730Z 24008KT 200V280 9999 FEW045 31/06 Q1011
LEBL - Barcelona, Spain
Distancia de la estación: NE 816km
Actualización: 24/07/2014 19:30
Poco nuboso
Poco nuboso
 Viento de ESE
Viento: ESE 7 km/h
Temperatura: 27°C
Índice de calor: 29°C
Rocío: 20°C
Humedad: 66%
Barómetro: 1011 hPa
Nubes: Poco nuboso
Visibilidad: 10 km
Detalles de las nubes: Poco nuboso 1524 m
2014/07/24 17:30 LEBL 241730Z 12004KT 9999 FEW050 27/20 Q1011 NOSIG
LEVC - Valencia, Spain
Distancia de la estación: ENE 535km
Actualización: 24/07/2014 19:30
Muy nuboso
Muy nuboso
 Viento de ENE
Viento: ENE 24 km/h
Temperatura: 27°C
Índice de calor: 29°C
Rocío: 22°C
Humedad: 74%
Barómetro: 1009 hPa
Nubes: Muy nuboso
Visibilidad: 10 km
Detalles de las nubes: Muy nuboso 549 m
2014/07/24 17:30 LEVC 241730Z 07013KT 9999 BKN018 27/22 Q1009 NOSIG